Time;durP1;ratioP1;P1;durP2;ratioP2;P2;SDS_P1;SDS_P2;PMS_P1;PMS_P2;Temp;Humidity;BMP_temperature;BMP_pressure;BME280_temperature;BME280_humidity;BME280_pressure;Samples;Min_cycle;Max_cycle;Signal;HPM_P1;HPM_P2
2021/12/08 00:00:55;;;;;;;1.65;0.88;;;17.30;45.50;;;;;;5117034;28;20016;-61
2021/12/08 00:03:21;;;;;;;1.35;0.82;;;17.20;45.40;;;;;;5117166;28;20020;-60
2021/12/08 00:05:47;;;;;;;1.45;0.90;;;17.20;45.40;;;;;;5117214;28;20023;-60
2021/12/08 00:08:15;;;;;;;1.25;0.85;;;17.20;45.50;;;;;;5116812;28;20047;-61
2021/12/08 00:13:01;;;;;;;1.25;0.85;;;17.20;45.50;;;;;;5117101;28;20035;-61
2021/12/08 00:13:37;;;;;;;1.63;0.80;;;17.20;45.50;;;;;;5102972;28;20047;-61
2021/12/08 00:16:06;;;;;;;1.75;0.68;;;17.20;45.50;;;;;;5117002;28;20374;-60
2021/12/08 00:18:33;;;;;;;1.25;0.70;;;17.20;45.60;;;;;;5117076;28;20019;-61
2021/12/08 00:21:01;;;;;;;1.55;0.80;;;17.20;45.60;;;;;;5116642;28;20477;-61
2021/12/08 00:23:27;;;;;;;2.50;0.90;;;17.20;45.60;;;;;;5116579;28;20106;-61
2021/12/08 00:25:53;;;;;;;1.02;0.73;;;17.20;45.60;;;;;;5098231;28;20023;-60
2021/12/08 00:28:19;;;;;;;1.98;1.10;;;17.20;45.60;;;;;;5116669;28;20477;-61
2021/12/08 00:30:47;;;;;;;1.00;0.63;;;17.20;45.70;;;;;;5117026;28;20031;-61
2021/12/08 00:33:13;;;;;;;1.73;1.02;;;17.20;45.70;;;;;;5116631;28;20031;-61
2021/12/08 00:35:40;;;;;;;1.83;1.05;;;17.20;45.70;;;;;;5098520;28;20008;-61
2021/12/08 00:38:06;;;;;;;2.22;1.02;;;17.20;45.70;;;;;;5099105;28;20031;-60
2021/12/08 00:40:32;;;;;;;3.42;0.90;;;17.20;45.70;;;;;;5116406;28;20008;-61
2021/12/08 00:42:58;;;;;;;2.75;0.82;;;17.10;45.60;;;;;;5116277;28;20038;-60
2021/12/08 00:45:24;;;;;;;0.60;0.50;;;17.10;45.60;;;;;;5098069;28;20019;-60
2021/12/08 00:47:51;;;;;;;1.67;0.90;;;17.10;45.60;;;;;;5116069;28;20019;-59
2021/12/08 00:50:17;;;;;;;1.60;0.95;;;17.20;45.80;;;;;;5116254;28;20474;-61
2021/12/08 00:52:43;;;;;;;1.98;0.88;;;17.10;45.70;;;;;;5116587;28;20030;-61
2021/12/08 00:55:11;;;;;;;1.90;0.90;;;17.10;45.70;;;;;;5098617;28;20098;-60
2021/12/08 00:57:37;;;;;;;2.17;0.95;;;17.10;45.80;;;;;;5116764;28;20043;-60
2021/12/08 01:00:20;;;;;;;1.15;0.80;;;17.10;45.80;;;;;;5099124;28;20004;-61
2021/12/08 01:02:46;;;;;;;1.70;0.95;;;17.10;45.80;;;;;;5098098;28;20023;-61
2021/12/08 01:05:14;;;;;;;1.38;0.80;;;17.10;45.80;;;;;;5115876;28;20000;-60
2021/12/08 01:07:40;;;;;;;1.23;0.70;;;17.10;45.80;;;;;;5097507;28;20481;-61
2021/12/08 01:10:07;;;;;;;1.58;0.70;;;17.10;45.90;;;;;;5115961;28;20023;-60
2021/12/08 01:12:33;;;;;;;1.30;0.80;;;17.10;45.90;;;;;;5115895;28;20016;-61
2021/12/08 01:14:59;;;;;;;1.30;0.80;;;17.10;45.90;;;;;;5098661;28;20106;-61
2021/12/08 01:17:24;;;;;;;1.02;0.73;;;17.10;45.90;;;;;;5098270;28;20087;-61
2021/12/08 01:19:50;;;;;;;1.75;0.85;;;17.10;46.00;;;;;;5098258;28;20011;-61
2021/12/08 01:22:16;;;;;;;1.33;0.70;;;17.00;46.00;;;;;;5098229;28;20016;-60
2021/12/08 01:24:42;;;;;;;1.55;0.80;;;17.10;46.00;;;;;;5098369;28;20485;-60
2021/12/08 01:27:08;;;;;;;1.58;0.77;;;17.00;45.90;;;;;;5081331;28;20031;-61
2021/12/08 01:29:34;;;;;;;1.13;0.60;;;17.00;45.90;;;;;;5097894;28;20019;-61
2021/12/08 01:32:00;;;;;;;1.50;0.52;;;17.00;45.90;;;;;;5097654;28;20024;-61
2021/12/08 01:34:26;;;;;;;1.25;0.60;;;17.00;46.00;;;;;;5097825;28;20032;-61
2021/12/08 01:36:53;;;;;;;1.35;0.70;;;17.00;46.00;;;;;;5115564;28;20482;-60
2021/12/08 01:39:18;;;;;;;1.13;0.65;;;17.00;46.00;;;;;;5115454;28;20018;-61
2021/12/08 01:41:45;;;;;;;1.08;0.73;;;17.00;46.00;;;;;;5096964;28;20061;-61
2021/12/08 01:46:55;;;;;;;1.65;0.73;;;17.00;46.10;;;;;;5115339;28;20547;-61
2021/12/08 01:49:21;;;;;;;1.15;0.60;;;17.00;46.10;;;;;;5097232;28;20031;-61
2021/12/08 01:51:47;;;;;;;1.38;0.70;;;17.00;46.10;;;;;;5096861;28;20032;-60
2021/12/08 01:54:13;;;;;;;1.00;0.80;;;17.00;46.10;;;;;;5096886;28;20027;-60
2021/12/08 01:56:38;;;;;;;1.05;0.70;;;16.90;46.10;;;;;;5115378;28;20412;-61
2021/12/08 01:59:05;;;;;;;1.55;0.90;;;17.00;46.10;;;;;;5096374;28;20098;-61
2021/12/08 02:01:38;;;;;;;1.35;0.73;;;17.00;46.20;;;;;;5114869;28;20073;-61
2021/12/08 02:04:06;;;;;;;0.80;0.63;;;16.90;46.10;;;;;;5114726;28;20413;-60
2021/12/08 02:06:38;;;;;;;1.25;0.70;;;16.90;46.10;;;;;;5114611;28;20023;-61
2021/12/08 02:09:06;;;;;;;0.90;0.60;;;16.90;46.10;;;;;;5114965;28;20016;-61
2021/12/08 02:11:32;;;;;;;0.98;0.60;;;16.90;46.10;;;;;;5114910;28;20020;-61
2021/12/08 02:14:01;;;;;;;1.27;0.80;;;16.90;46.10;;;;;;5114535;28;20030;-60
2021/12/08 02:16:27;;;;;;;1.08;0.70;;;16.90;46.20;;;;;;5096757;28;20035;-61
2021/12/08 02:18:53;;;;;;;1.63;0.60;;;16.90;46.10;;;;;;5114261;28;20051;-61
2021/12/08 02:21:25;;;;;;;1.13;0.60;;;16.90;46.20;;;;;;5079860;28;20039;-61
2021/12/08 02:23:51;;;;;;;1.85;0.90;;;16.90;46.20;;;;;;5114622;28;20020;-61
2021/12/08 02:26:18;;;;;;;1.58;0.70;;;16.90;46.20;;;;;;5114566;28;20012;-61
2021/12/08 02:28:44;;;;;;;1.88;0.80;;;16.90;46.20;;;;;;5114558;28;20041;-61
2021/12/08 02:31:13;;;;;;;1.20;0.65;;;16.90;46.20;;;;;;5114655;28;20096;-61
2021/12/08 02:49:49;;;;;;;1.45;0.73;;;16.80;46.30;;;;;;5096709;28;20028;-61
2021/12/08 02:52:16;;;;;;;1.92;0.70;;;16.80;46.30;;;;;;5114583;28;20019;-61
2021/12/08 02:54:44;;;;;;;1.20;0.60;;;16.80;46.30;;;;;;5114177;28;20023;-61
2021/12/08 02:57:10;;;;;;;0.98;0.45;;;16.80;46.40;;;;;;5113835;28;20004;-60
2021/12/08 02:59:39;;;;;;;1.67;0.70;;;16.80;46.30;;;;;;5114229;28;20011;-60
2021/12/08 03:02:05;;;;;;;1.30;0.68;;;16.80;46.30;;;;;;5114430;28;20019;-64
2021/12/08 03:04:31;;;;;;;1.13;0.63;;;16.80;46.30;;;;;;5095520;28;20038;-61
2021/12/08 03:06:57;;;;;;;1.08;0.60;;;16.80;46.30;;;;;;5113801;28;20054;-60
2021/12/08 03:09:24;;;;;;;1.20;0.60;;;16.80;46.30;;;;;;5113454;28;20477;-61
2021/12/08 03:11:51;;;;;;;0.93;0.43;;;16.80;46.30;;;;;;5095177;28;20016;-60
2021/12/08 03:14:17;;;;;;;0.98;0.50;;;16.80;46.40;;;;;;5113288;28;20063;-61
2021/12/08 03:16:48;;;;;;;1.10;0.70;;;16.80;46.30;;;;;;5078431;28;20016;-61
2021/12/08 03:19:15;;;;;;;1.73;0.80;;;16.80;46.10;;;;;;5096419;28;20072;-61
2021/12/08 03:21:41;;;;;;;1.83;0.70;;;16.90;46.00;;;;;;5114132;28;20027;-61
2021/12/08 03:24:23;;;;;;;4.38;0.93;;;16.90;45.80;;;;;;5113959;28;20035;-60
2021/12/08 03:26:55;;;;;;;0.90;0.70;;;16.90;45.80;;;;;;5113811;28;20019;-61
2021/12/08 03:29:30;;;;;;;0.68;0.55;;;17.10;45.60;;;;;;5096460;28;20492;-61
2021/12/08 03:32:04;;;;;;;0.80;0.50;;;17.10;45.40;;;;;;5095207;28;20757;-61
2021/12/08 03:34:31;;;;;;;1.10;0.65;;;17.10;45.40;;;;;;5113676;28;20016;-61
2021/12/08 03:36:58;;;;;;;1.20;0.52;;;17.20;45.30;;;;;;5113497;28;20504;-61
2021/12/08 03:39:23;;;;;;;2.38;0.68;;;17.20;45.20;;;;;;5113488;28;20359;-60
2021/12/08 03:41:50;;;;;;;1.30;0.57;;;17.30;45.20;;;;;;5113582;28;20019;-60
2021/12/08 03:44:15;;;;;;;1.08;0.55;;;17.40;44.90;;;;;;5113948;28;20470;-61
2021/12/08 03:46:42;;;;;;;1.10;0.57;;;17.50;44.70;;;;;;5095574;28;20047;-61
2021/12/08 03:49:19;;;;;;;0.77;0.50;;;17.60;44.50;;;;;;5095594;28;20020;-61
2021/12/08 03:51:45;;;;;;;1.50;0.60;;;17.70;44.20;;;;;;5110284;28;20023;-60
2021/12/08 03:54:11;;;;;;;1.35;0.80;;;17.80;44.00;;;;;;5113184;28;20043;-60
2021/12/08 03:56:37;;;;;;;1.90;0.70;;;17.90;43.90;;;;;;5095572;28;20019;-60
2021/12/08 03:59:03;;;;;;;1.20;0.60;;;17.90;43.70;;;;;;5113274;28;20012;-60
2021/12/08 04:01:30;;;;;;;0.80;0.50;;;18.00;43.50;;;;;;5113252;28;20011;-60
2021/12/08 04:04:04;;;;;;;1.95;0.70;;;18.10;43.80;;;;;;5113460;28;20075;-60
2021/12/08 04:06:34;;;;;;;1.30;0.70;;;18.20;43.20;;;;;;5113224;28;20019;-60
2021/12/08 04:09:04;;;;;;;1.63;0.80;;;18.30;43.00;;;;;;5095463;28;20028;-59
2021/12/08 04:11:29;;;;;;;0.63;0.47;;;18.40;42.80;;;;;;5095786;28;20028;-61
2021/12/08 04:14:09;;;;;;;1.20;0.70;;;18.50;42.60;;;;;;5112857;28;20478;-60
2021/12/08 04:16:41;;;;;;;1.00;0.70;;;18.60;42.50;;;;;;5113015;28;20034;-61
2021/12/08 04:19:07;;;;;;;1.10;0.68;;;18.60;42.30;;;;;;5113199;28;20454;-61
2021/12/08 04:21:33;;;;;;;0.82;0.50;;;18.70;42.10;;;;;;5077735;28;20024;-61
2021/12/08 04:23:59;;;;;;;0.68;0.50;;;18.80;42.00;;;;;;5115174;28;20027;-60
2021/12/08 04:26:30;;;;;;;0.68;0.57;;;18.90;42.40;;;;;;5116753;28;20015;-61
2021/12/08 04:28:56;;;;;;;;;;;18.90;42.30;;;;;;5116909;28;20018;-61
2021/12/08 04:31:27;;;;;;;0.90;0.55;;;19.00;41.60;;;;;;5116425;28;19900;-60
2021/12/08 04:33:57;;;;;;;0.32;0.32;;;19.10;41.50;;;;;;5116462;28;20019;-61
2021/12/08 04:36:23;;;;;;;0.60;0.40;;;19.10;41.40;;;;;;5116353;28;20008;-61
2021/12/08 04:38:54;;;;;;;1.27;0.50;;;19.20;41.30;;;;;;5116556;28;20016;-61
2021/12/08 04:41:26;;;;;;;0.93;0.52;;;19.30;41.20;;;;;;5116241;28;20466;-61
2021/12/08 04:44:09;;;;;;;0.60;0.40;;;19.30;41.00;;;;;;5116357;28;20030;-61
2021/12/08 04:46:55;;;;;;;1.23;0.50;;;19.40;40.90;;;;;;5116062;28;20542;-61
2021/12/08 04:52:16;;;;;;;1.40;0.77;;;19.50;40.70;;;;;;5115943;28;20060;-61
2021/12/08 05:08:45;;;;;;;1.17;0.55;;;19.90;40.00;;;;;;5013183;28;20050;-61
2021/12/08 05:11:30;;;;;;;1.25;0.68;;;20.00;39.90;;;;;;5013134;28;20660;-61
2021/12/08 05:13:59;;;;;;;1.17;0.60;;;20.10;39.90;;;;;;5013162;28;20084;-61
2021/12/08 05:16:26;;;;;;;1.38;0.65;;;20.10;39.80;;;;;;5013166;28;20010;-61
2021/12/08 05:18:52;;;;;;;0.40;0.32;;;20.20;39.70;;;;;;5013270;28;20065;-61
2021/12/08 05:21:26;;;;;;;0.80;0.50;;;20.20;39.60;;;;;;5012991;28;20022;-61
2021/12/08 05:24:02;;;;;;;1.05;0.57;;;20.30;39.50;;;;;;5013122;28;20026;-61
2021/12/08 05:26:35;;;;;;;0.93;0.50;;;20.30;39.40;;;;;;5013459;28;20041;-61
2021/12/08 05:29:05;;;;;;;0.60;0.40;;;20.40;39.30;;;;;;5013198;28;20575;-61
2021/12/08 05:31:31;;;;;;;1.00;0.52;;;20.40;39.30;;;;;;5013052;28;20500;-61
2021/12/08 05:33:57;;;;;;;0.93;0.50;;;20.50;39.20;;;;;;4996437;28;20129;-61
2021/12/08 05:36:23;;;;;;;1.17;0.57;;;20.50;39.20;;;;;;4996721;28;20113;-61
2021/12/08 05:38:49;;;;;;;0.95;0.43;;;20.60;39.10;;;;;;5030382;28;20134;-61
2021/12/08 05:41:27;;;;;;;0.55;0.50;;;20.60;39.00;;;;;;5115953;28;20011;-61
2021/12/08 05:43:53;;;;;;;1.00;0.60;;;20.70;39.00;;;;;;5115681;28;20027;-61
2021/12/08 05:46:19;;;;;;;0.88;0.50;;;20.70;38.90;;;;;;5097246;28;20403;-61
2021/12/08 05:48:49;;;;;;;0.98;0.43;;;20.80;38.90;;;;;;5096929;28;20135;-61
2021/12/08 05:51:18;;;;;;;1.15;0.60;;;20.80;38.80;;;;;;5115424;28;20102;-61
2021/12/08 05:53:45;;;;;;;0.82;0.60;;;20.80;38.70;;;;;;5115019;28;20016;-61
2021/12/08 05:56:11;;;;;;;0.52;0.47;;;20.90;38.70;;;;;;5115309;28;20007;-61
2021/12/08 05:58:37;;;;;;;0.60;0.30;;;20.90;38.60;;;;;;5115184;28;20004;-61
2021/12/08 06:01:08;;;;;;;0.40;0.30;;;20.90;38.50;;;;;;5115239;28;20038;-61
2021/12/08 06:03:34;;;;;;;2.28;0.60;;;21.00;38.50;;;;;;5115289;28;20012;-62
2021/12/08 06:06:00;;;;;;;0.88;0.50;;;21.10;38.50;;;;;;5114813;28;20462;-61
2021/12/08 06:08:28;;;;;;;0.98;0.50;;;21.10;38.50;;;;;;5114839;28;20054;-61
2021/12/08 06:10:55;;;;;;;1.30;0.60;;;21.20;38.30;;;;;;5097516;28;20023;-61
2021/12/08 06:13:22;;;;;;;0.60;0.43;;;21.20;38.30;;;;;;5114976;28;20020;-61
2021/12/08 06:15:48;;;;;;;1.55;0.60;;;21.20;38.20;;;;;;5096403;28;20020;-61
2021/12/08 06:18:19;;;;;;;0.60;0.40;;;21.30;38.80;;;;;;5114960;28;20004;-61
2021/12/08 06:20:45;;;;;;;1.02;0.50;;;21.30;38.10;;;;;;5115157;28;20132;-61
2021/12/08 06:23:11;;;;;;;0.52;0.43;;;21.30;38.10;;;;;;5079762;28;20492;-61
2021/12/08 06:25:37;;;;;;;0.95;0.50;;;21.30;38.10;;;;;;5114895;28;20027;-61
2021/12/08 06:28:04;;;;;;;0.80;0.60;;;21.30;38.00;;;;;;5114604;28;20023;-61
2021/12/08 06:30:30;;;;;;;0.45;0.40;;;21.40;38.00;;;;;;5114789;28;20080;-61
2021/12/08 06:32:56;;;;;;;0.85;0.50;;;21.50;38.00;;;;;;5114293;28;20666;-61
2021/12/08 06:35:29;;;;;;;2.00;0.68;;;21.50;37.90;;;;;;5114750;28;20103;-61
2021/12/08 06:37:55;;;;;;;0.70;0.55;;;21.50;38.00;;;;;;5114718;28;20658;-61
2021/12/08 06:40:28;;;;;;;1.40;0.63;;;21.50;37.90;;;;;;5114491;28;20477;-61
2021/12/08 06:42:58;;;;;;;1.00;0.50;;;21.60;37.90;;;;;;5114482;28;20016;-61
2021/12/08 06:45:28;;;;;;;1.57;0.80;;;21.50;37.80;;;;;;5113950;28;20026;-61
2021/12/08 06:47:55;;;;;;;0.70;0.50;;;21.60;37.80;;;;;;5114306;28;20020;-61
2021/12/08 06:50:33;;;;;;;0.60;0.50;;;21.60;37.70;;;;;;5114115;28;20020;-61
2021/12/08 06:52:59;;;;;;;0.90;0.60;;;21.70;37.70;;;;;;5113615;28;20026;-61
2021/12/08 06:55:43;;;;;;;0.77;0.40;;;21.70;37.70;;;;;;5095145;28;20118;-61
2021/12/08 06:58:14;;;;;;;1.17;0.68;;;21.70;37.70;;;;;;5113589;28;20018;-61
2021/12/08 07:04:13;;;;;;;0.47;0.40;;;21.80;37.70;;;;;;5113584;28;20038;-62
2021/12/08 07:06:59;;;;;;;1.27;0.65;;;21.80;37.70;;;;;;5112890;28;20103;-60
2021/12/08 07:09:28;;;;;;;0.68;0.30;;;21.80;37.70;;;;;;5097608;28;20062;-61
2021/12/08 07:11:55;;;;;;;0.90;0.60;;;21.80;37.70;;;;;;5094991;28;20028;-61
2021/12/08 07:14:22;;;;;;;0.45;0.25;;;21.80;37.70;;;;;;5112561;28;20492;-61
2021/12/08 07:16:52;;;;;;;0.73;0.38;;;21.80;37.70;;;;;;5094082;28;20011;-61
2021/12/08 07:19:35;;;;;;;1.27;0.57;;;21.90;37.70;;;;;;5112467;28;20091;-61
2021/12/08 07:22:04;;;;;;;2.03;0.60;;;21.90;37.60;;;;;;5111856;28;20061;-60
2021/12/08 07:24:36;;;;;;;0.98;0.50;;;21.90;37.70;;;;;;5112334;28;20026;-61
2021/12/08 07:27:09;;;;;;;1.35;0.52;;;21.90;37.70;;;;;;5111859;28;20035;-61
2021/12/08 07:29:39;;;;;;;0.60;0.50;;;21.90;37.70;;;;;;5111529;28;20008;-61
2021/12/08 07:32:14;;;;;;;0.88;0.50;;;21.90;37.70;;;;;;5111208;28;20024;-60
2021/12/08 07:34:42;;;;;;;0.80;0.65;;;21.90;37.80;;;;;;5092538;28;20034;-60
2021/12/08 07:37:13;;;;;;;0.75;0.40;;;21.80;37.80;;;;;;5110858;28;20103;-60
2021/12/08 07:39:44;;;;;;;;;;;21.90;37.90;;;;;;5093213;28;20039;-61
2021/12/08 07:42:31;;;;;;;0.98;0.50;;;21.90;37.80;;;;;;5110895;28;19989;-61
2021/12/08 07:44:59;;;;;;;1.00;0.70;;;21.90;37.80;;;;;;5093259;28;20016;-61
2021/12/08 07:47:25;;;;;;;1.75;0.45;;;21.90;37.80;;;;;;5110939;28;20080;-61
2021/12/08 07:49:58;;;;;;;1.58;0.55;;;22.00;37.80;;;;;;5111142;28;20020;-61
2021/12/08 07:52:28;;;;;;;0.90;0.50;;;22.00;37.90;;;;;;5111302;28;20072;-61
2021/12/08 07:54:54;;;;;;;1.02;0.52;;;22.00;37.80;;;;;;5092428;28;20218;-61
2021/12/08 07:57:25;;;;;;;1.10;0.43;;;22.00;37.80;;;;;;5092267;28;20015;-61
2021/12/08 07:59:53;;;;;;;0.50;0.50;;;22.00;37.70;;;;;;5114953;28;20007;-61
2021/12/08 08:02:19;;;;;;;0.75;0.40;;;22.00;37.70;;;;;;5115243;28;20022;-61
2021/12/08 08:04:46;;;;;;;1.10;0.40;;;22.10;37.70;;;;;;5115111;28;20023;-61
2021/12/08 08:07:13;;;;;;;1.20;0.60;;;22.10;37.60;;;;;;5114675;28;20120;-61
2021/12/08 08:09:42;;;;;;;1.00;0.57;;;22.10;37.60;;;;;;5097277;28;20008;-61
2021/12/08 08:12:14;;;;;;;0.60;0.32;;;22.20;37.60;;;;;;5116204;28;20011;-62
2021/12/08 08:14:42;;;;;;;0.68;0.50;;;22.20;37.50;;;;;;5098697;28;20066;-61
2021/12/08 08:17:12;;;;;;;1.10;0.65;;;22.20;37.50;;;;;;5116065;28;20541;-61
2021/12/08 08:19:44;;;;;;;1.03;0.50;;;22.20;37.50;;;;;;5116158;28;20070;-60
2021/12/08 08:22:13;;;;;;;0.85;0.50;;;22.20;37.50;;;;;;5098801;28;20253;-61
2021/12/08 08:24:39;;;;;;;1.48;0.60;;;22.20;37.40;;;;;;5116204;28;20019;-61
2021/12/08 08:27:06;;;;;;;0.47;0.30;;;22.20;37.50;;;;;;5115712;28;20457;-61
2021/12/08 08:29:33;;;;;;;1.00;0.40;;;22.20;37.40;;;;;;5116031;28;20022;-61
2021/12/08 08:32:08;;;;;;;0.80;0.32;;;22.30;37.40;;;;;;5115747;28;20007;-62
2021/12/08 08:34:39;;;;;;;0.55;0.32;;;22.30;37.40;;;;;;5115688;28;20027;-61
2021/12/08 08:37:08;;;;;;;0.90;0.57;;;22.30;37.40;;;;;;5115804;28;20011;-61
2021/12/08 08:39:37;;;;;;;0.88;0.40;;;22.30;37.40;;;;;;5080944;28;20012;-61
2021/12/08 08:42:25;;;;;;;1.15;0.57;;;22.30;37.40;;;;;;5115963;28;20077;-61
2021/12/08 08:44:58;;;;;;;0.60;0.43;;;22.40;37.30;;;;;;5097400;28;20381;-61
2021/12/08 08:47:54;;;;;;;0.75;0.45;;;22.40;37.30;;;;;;5116081;28;20102;-61
2021/12/08 08:50:24;;;;;;;1.13;0.52;;;22.40;37.30;;;;;;5115584;28;20023;-61
2021/12/08 08:52:51;;;;;;;0.70;0.40;;;22.50;37.30;;;;;;5115504;28;20007;-61
2021/12/08 08:55:24;;;;;;;1.65;0.60;;;22.40;37.20;;;;;;5115296;28;20077;-61
2021/12/08 08:57:50;;;;;;;0.63;0.38;;;22.50;37.20;;;;;;5115414;28;20465;-61
2021/12/08 09:00:25;;;;;;;1.67;0.57;;;22.50;37.10;;;;;;5096751;28;20095;-61
2021/12/08 09:02:52;;;;;;;1.00;0.50;;;22.60;37.10;;;;;;5115531;28;20043;-61
2021/12/08 09:05:20;;;;;;;1.70;0.50;;;22.50;37.10;;;;;;5115327;28;20038;-61
2021/12/08 09:07:48;;;;;;;0.55;0.43;;;22.60;37.10;;;;;;5114502;28;20055;-61
2021/12/08 09:10:30;;;;;;;0.93;0.55;;;22.60;37.10;;;;;;5114325;28;20011;-60
2021/12/08 09:12:59;;;;;;;1.15;0.60;;;22.60;37.00;;;;;;5114709;28;20485;-61
2021/12/08 09:15:37;;;;;;;1.85;0.47;;;22.60;37.10;;;;;;5095561;28;20035;-60
2021/12/08 09:18:10;;;;;;;0.68;0.40;;;22.60;37.00;;;;;;5113830;28;20415;-60
2021/12/08 09:20:54;;;;;;;0.65;0.32;;;22.70;37.00;;;;;;5114929;28;20442;-61
2021/12/08 09:23:40;;;;;;;0.65;0.30;;;22.70;37.00;;;;;;5115126;28;20022;-61
2021/12/08 09:26:11;;;;;;;0.68;0.50;;;22.70;37.00;;;;;;5114449;28;20030;-60
2021/12/08 09:28:38;;;;;;;;;;;22.70;36.90;;;;;;5097115;28;20023;-61
2021/12/08 09:31:12;;;;;;;1.73;0.32;;;22.70;37.00;;;;;;5114511;28;19911;-61
2021/12/08 09:33:56;;;;;;;0.80;0.40;;;22.80;37.00;;;;;;5095473;28;20478;-62
2021/12/08 09:36:39;;;;;;;0.70;0.40;;;22.80;36.90;;;;;;5113731;28;20007;-60
2021/12/08 09:39:33;;;;;;;1.77;0.65;;;22.80;36.90;;;;;;5113807;28;20023;-61
2021/12/08 09:42:21;;;;;;;0.70;0.50;;;22.80;36.90;;;;;;5102513;28;20095;-60
2021/12/08 09:44:51;;;;;;;1.15;0.60;;;22.80;37.00;;;;;;5094286;28;20034;-61
2021/12/08 09:47:17;;;;;;;0.52;0.35;;;22.90;37.00;;;;;;5113777;28;20061;-60
2021/12/08 09:49:47;;;;;;;0.38;0.22;;;22.80;36.90;;;;;;5113830;28;20015;-61
2021/12/08 09:52:14;;;;;;;0.63;0.40;;;22.80;36.90;;;;;;5113817;28;20047;-60
2021/12/08 09:54:42;;;;;;;0.75;0.50;;;22.80;37.00;;;;;;5096029;28;20160;-61
2021/12/08 09:57:12;;;;;;;0.40;0.38;;;22.80;36.90;;;;;;5113641;28;20016;-61
2021/12/08 09:59:45;;;;;;;0.77;0.53;;;22.90;36.90;;;;;;5113200;28;20022;-61
2021/12/08 10:02:12;;;;;;;2.47;0.50;;;22.90;37.00;;;;;;5094999;28;20500;-61
2021/12/08 10:04:38;;;;;;;0.40;0.40;;;22.90;36.90;;;;;;5113695;28;20474;-60
2021/12/08 10:07:05;;;;;;;0.93;0.50;;;22.90;37.00;;;;;;5111484;28;20039;-61
2021/12/08 10:09:31;;;;;;;0.98;0.60;;;22.90;36.90;;;;;;5113759;28;20102;-61
2021/12/08 10:11:58;;;;;;;0.40;0.30;;;22.90;36.90;;;;;;5114189;28;20091;-60
2021/12/08 10:14:24;;;;;;;1.05;0.40;;;23.00;36.90;;;;;;5095733;28;20106;-61
2021/12/08 10:16:52;;;;;;;3.25;0.60;;;23.00;36.80;;;;;;5113999;28;20004;-61
2021/12/08 10:19:19;;;;;;;0.77;0.45;;;23.00;36.80;;;;;;5113860;28;20039;-61
2021/12/08 10:21:47;;;;;;;1.45;0.57;;;23.10;36.70;;;;;;5095088;28;20091;-61
2021/12/08 10:24:29;;;;;;;0.40;0.30;;;23.00;36.80;;;;;;5113201;28;20028;-60
2021/12/08 10:27:07;;;;;;;0.82;0.40;;;23.00;36.80;;;;;;5113125;28;20011;-60
2021/12/08 10:29:33;;;;;;;1.35;0.60;;;23.00;36.80;;;;;;5113478;28;20095;-60
2021/12/08 10:32:00;;;;;;;0.70;0.40;;;23.10;36.80;;;;;;5113327;28;20015;-60
2021/12/08 10:34:31;;;;;;;0.60;0.43;;;23.10;36.70;;;;;;5113088;28;20076;-60
2021/12/08 10:37:09;;;;;;;0.50;0.40;;;23.10;36.70;;;;;;5112730;28;20010;-60
2021/12/08 10:39:38;;;;;;;0.55;0.45;;;23.10;36.70;;;;;;5112882;28;20023;-60
2021/12/08 10:42:07;;;;;;;0.77;0.38;;;23.10;36.60;;;;;;5094857;28;20429;-61
2021/12/08 10:44:40;;;;;;;1.27;0.50;;;23.10;36.60;;;;;;5112757;28;20026;-60
2021/12/08 10:47:08;;;;;;;1.33;0.50;;;23.20;37.30;;;;;;5112872;28;20023;-61
2021/12/08 10:54:52;;;;;;;1.23;0.50;;;23.20;36.70;;;;;;5113189;28;20449;-61
2021/12/08 10:57:27;;;;;;;1.05;0.50;;;23.20;36.60;;;;;;5094312;28;20011;-61
2021/12/08 11:00:22;;;;;;;0.50;0.50;;;23.20;36.60;;;;;;5094255;28;20465;-61
2021/12/08 11:02:54;;;;;;;0.80;0.40;;;23.30;36.60;;;;;;5094731;28;20068;-61
2021/12/08 11:05:26;;;;;;;0.80;0.40;;;23.30;36.60;;;;;;5112817;28;20023;-61
2021/12/08 11:08:08;;;;;;;0.55;0.38;;;23.30;36.70;;;;;;5112997;28;20097;-61
2021/12/08 11:10:57;;;;;;;2.08;0.40;;;23.30;36.60;;;;;;5095032;28;20070;-61
2021/12/08 11:13:30;;;;;;;0.85;0.40;;;23.30;37.20;;;;;;5064595;28;20103;-61
2021/12/08 11:16:12;;;;;;;1.52;0.47;;;23.30;36.60;;;;;;5113808;28;20095;-61
2021/12/08 11:18:41;;;;;;;0.38;0.30;;;23.30;36.70;;;;;;5113618;28;20019;-61
2021/12/08 11:21:19;;;;;;;1.08;0.40;;;23.20;36.60;;;;;;5095127;28;20412;-61
2021/12/08 11:23:47;;;;;;;0.65;0.40;;;23.20;36.70;;;;;;5113077;28;20047;-61
2021/12/08 11:26:23;;;;;;;1.45;0.43;;;23.20;36.80;;;;;;5113262;28;20027;-61
2021/12/08 11:29:02;;;;;;;0.68;0.40;;;23.10;36.90;;;;;;5113349;28;20015;-60
2021/12/08 11:31:34;;;;;;;0.70;0.50;;;23.00;37.10;;;;;;5113693;28;20011;-61
2021/12/08 11:34:02;;;;;;;2.05;0.40;;;22.90;37.20;;;;;;5117697;28;20024;-61
2021/12/08 11:36:29;;;;;;;1.00;0.60;;;22.90;37.30;;;;;;5117629;28;20019;-61
2021/12/08 11:38:56;;;;;;;0.93;0.40;;;22.80;37.40;;;;;;5117422;28;20015;-62
2021/12/08 11:41:34;;;;;;;1.40;0.80;;;22.70;37.50;;;;;;5099732;28;20011;-61
2021/12/08 11:44:00;;;;;;;1.10;0.50;;;22.60;37.70;;;;;;5117671;28;20019;-60
2021/12/08 11:46:26;;;;;;;0.52;0.43;;;22.50;37.80;;;;;;5117450;28;20106;-61
2021/12/08 11:49:07;;;;;;;1.27;0.50;;;22.50;38.00;;;;;;5117602;28;20137;-60
2021/12/08 11:51:45;;;;;;;0.47;0.40;;;22.40;38.00;;;;;;5117228;28;20543;-61
2021/12/08 11:54:26;;;;;;;0.70;0.40;;;22.30;38.10;;;;;;5117152;28;20110;-60
2021/12/08 11:56:52;;;;;;;;;;;22.30;38.20;;;;;;5117742;28;20020;-61
2021/12/08 11:59:18;;;;;;;1.10;0.50;;;22.20;38.40;;;;;;5116898;28;19904;-60
2021/12/08 12:01:45;;;;;;;1.17;0.35;;;22.10;38.50;;;;;;5117220;28;20012;-60
2021/12/08 12:04:11;;;;;;;2.28;0.50;;;22.00;38.60;;;;;;5099099;28;20068;-60
2021/12/08 12:06:36;;;;;;;0.43;0.43;;;22.00;39.30;;;;;;5116746;28;20019;-60
2021/12/08 12:09:03;;;;;;;1.05;0.50;;;21.90;38.90;;;;;;5098592;28;20062;-60
2021/12/08 12:11:29;;;;;;;1.02;0.47;;;21.80;38.90;;;;;;5116947;28;20011;-60
2021/12/08 12:13:55;;;;;;;0.77;0.45;;;21.70;39.00;;;;;;5116518;28;20500;-61
2021/12/08 12:16:22;;;;;;;2.35;0.40;;;21.70;39.20;;;;;;5116689;28;20016;-60
2021/12/08 12:18:51;;;;;;;0.60;0.40;;;21.60;39.20;;;;;;5116866;28;20019;-60
2021/12/08 12:21:31;;;;;;;0.68;0.40;;;21.60;39.30;;;;;;5116566;28;20478;-61
2021/12/08 12:24:23;;;;;;;1.15;0.45;;;21.50;39.50;;;;;;5098950;28;20019;-61
2021/12/08 12:27:30;;;;;;;1.05;0.40;;;21.40;39.60;;;;;;5082927;28;20008;-61
2021/12/08 12:30:18;;;;;;;0.70;0.43;;;21.30;40.30;;;;;;5116679;28;20024;-61
2021/12/08 12:32:44;;;;;;;1.20;0.50;;;21.20;39.90;;;;;;5116612;28;20076;-60
2021/12/08 12:35:24;;;;;;;1.55;0.77;;;21.10;40.10;;;;;;5116373;28;20031;-60
2021/12/08 12:37:59;;;;;;;0.60;0.40;;;21.00;40.10;;;;;;5116353;28;20035;-60
2021/12/08 12:40:54;;;;;;;0.70;0.50;;;21.10;40.20;;;;;;5116431;28;20039;-61
2021/12/08 12:43:28;;;;;;;0.65;0.50;;;21.00;40.30;;;;;;5113201;28;20083;-60
2021/12/08 12:46:04;;;;;;;0.63;0.40;;;20.90;40.40;;;;;;5115984;28;20019;-61
2021/12/08 12:48:31;;;;;;;1.95;0.55;;;20.80;40.60;;;;;;5116307;28;20035;-60
2021/12/08 12:51:14;;;;;;;0.52;0.40;;;20.80;40.60;;;;;;5097929;28;20023;-61
2021/12/08 12:53:56;;;;;;;0.30;0.28;;;20.70;40.70;;;;;;5116239;28;20096;-61
2021/12/08 12:56:34;;;;;;;1.45;0.70;;;20.70;40.70;;;;;;5098352;28;20020;-60
2021/12/08 12:59:14;;;;;;;0.70;0.50;;;20.60;40.90;;;;;;5115865;28;20065;-60
2021/12/08 13:01:45;;;;;;;1.80;0.50;;;20.60;40.90;;;;;;5116241;28;20071;-61
2021/12/08 13:04:21;;;;;;;;;;;20.50;41.00;;;;;;5098849;28;20023;-61
2021/12/08 13:07:16;;;;;;;0.50;0.30;;;20.50;41.00;;;;;;5097431;28;20285;-61
2021/12/08 13:09:53;;;;;;;0.68;0.40;;;20.40;41.10;;;;;;5112928;28;20504;-60
2021/12/08 13:12:38;;;;;;;1.08;0.52;;;20.40;41.10;;;;;;5116093;28;20089;-61
2021/12/08 13:15:18;;;;;;;0.65;0.45;;;20.40;41.20;;;;;;5115741;28;20034;-60
2021/12/08 13:18:03;;;;;;;2.35;0.65;;;20.40;41.20;;;;;;5115701;28;20019;-60
2021/12/08 13:20:34;;;;;;;1.45;0.40;;;20.30;41.20;;;;;;5115326;28;20023;-60
2021/12/08 13:23:03;;;;;;;0.30;0.30;;;20.40;41.10;;;;;;5115310;28;20373;-60
2021/12/08 13:25:30;;;;;;;0.68;0.47;;;20.40;41.20;;;;;;5097191;28;20133;-60
2021/12/08 13:28:18;;;;;;;3.00;0.50;;;20.30;41.20;;;;;;5115290;28;20028;-60
2021/12/08 13:30:50;;;;;;;0.43;0.43;;;20.30;41.20;;;;;;5115459;28;20030;-60
2021/12/08 13:33:26;;;;;;;0.50;0.43;;;20.30;41.30;;;;;;5115324;28;20069;-60
2021/12/08 13:35:53;;;;;;;1.42;0.40;;;20.20;41.30;;;;;;5115006;28;20023;-60
2021/12/08 13:38:19;;;;;;;0.80;0.40;;;20.20;41.40;;;;;;5115266;28;20026;-60
2021/12/08 13:40:50;;;;;;;1.65;0.50;;;20.10;41.60;;;;;;5115031;28;20022;-60
2021/12/08 13:43:35;;;;;;;1.05;0.55;;;20.10;41.60;;;;;;5115066;28;20073;-60
2021/12/08 13:46:00;;;;;;;0.93;0.47;;;20.00;41.70;;;;;;5115066;28;20015;-60
2021/12/08 13:48:26;;;;;;;1.35;0.63;;;19.90;41.90;;;;;;5096729;28;20493;-60
2021/12/08 13:50:52;;;;;;;1.48;0.60;;;19.90;41.90;;;;;;5114686;28;20008;-60